CFG1HC EDDF-EGKK
Flight info
| Callsign | CFG1HC |
|---|---|
| Flight time | 1h 5m |
| Altitude | 32000 |
| Route | SOBRA2L/18 SOBRA Y180 BITBU Y181 DEMUL M624 BUB L608 DENUT L610 TEBRA |
| Aircraft | A319/M-SDE3FGHIRWY/LB1 |
Departure
| Time | 2026-04-16 12:36 |
|---|---|
| Airport | Frankfurt Main Airport (EDDF) |
Arrival
| Time | 2026-04-16 13:41 |
|---|---|
| Airport | London Gatwick Airport (EGKK) |
| Time | Latitude | Longitude | Altitude | Speed | Heading |
|---|---|---|---|---|---|
| 2026-04-16 11:34 | 50.04653 | 8.57075 | 358 ft | 0 kts | 91° |
| 2026-04-16 12:22 | 50.04653 | 8.57073 | 356 ft | 2 kts | 91° |
| 2026-04-16 12:22 | 50.04653 | 8.57034 | 356 ft | 4 kts | 91° |
| 2026-04-16 12:22 | 50.04653 | 8.56993 | 356 ft | 4 kts | 92° |
| 2026-04-16 12:22 | 50.04659 | 8.56958 | 363 ft | 4 kts | 144° |
| 2026-04-16 12:23 | 50.04679 | 8.56953 | 361 ft | 2 kts | 204° |
| 2026-04-16 12:23 | 50.04668 | 8.56945 | 362 ft | 4 kts | 204° |
| 2026-04-16 12:23 | 50.04646 | 8.56929 | 362 ft | 1 kts | 204° |
| 2026-04-16 12:25 | 50.04646 | 8.56928 | 362 ft | 0 kts | 204° |
| 2026-04-16 12:26 | 50.04645 | 8.56928 | 362 ft | 0 kts | 204° |
| 2026-04-16 12:26 | 50.04644 | 8.56927 | 362 ft | 1 kts | 204° |
| 2026-04-16 12:26 | 50.04630 | 8.56919 | 359 ft | 3 kts | 195° |
| 2026-04-16 12:26 | 50.04599 | 8.56909 | 356 ft | 6 kts | 192° |
| 2026-04-16 12:27 | 50.04569 | 8.56898 | 358 ft | 2 kts | 193° |
| 2026-04-16 12:27 | 50.04567 | 8.56898 | 358 ft | 0 kts | 193° |
| 2026-04-16 12:27 | 50.04545 | 8.56890 | 361 ft | 7 kts | 193° |
| 2026-04-16 12:27 | 50.04486 | 8.56868 | 359 ft | 10 kts | 193° |
| 2026-04-16 12:28 | 50.04442 | 8.56791 | 363 ft | 11 kts | 252° |
| 2026-04-16 12:28 | 50.04414 | 8.56669 | 358 ft | 13 kts | 248° |
| 2026-04-16 12:28 | 50.04379 | 8.56526 | 363 ft | 15 kts | 250° |
| 2026-04-16 12:28 | 50.04342 | 8.56367 | 356 ft | 16 kts | 250° |
| 2026-04-16 12:29 | 50.04302 | 8.56197 | 355 ft | 17 kts | 249° |
| 2026-04-16 12:29 | 50.04257 | 8.56015 | 355 ft | 19 kts | 249° |
| 2026-04-16 12:29 | 50.04210 | 8.55824 | 358 ft | 20 kts | 250° |
| 2026-04-16 12:29 | 50.04163 | 8.55620 | 355 ft | 21 kts | 249° |
| 2026-04-16 12:30 | 50.04112 | 8.55408 | 352 ft | 21 kts | 250° |
| 2026-04-16 12:30 | 50.04063 | 8.55200 | 357 ft | 20 kts | 250° |
| 2026-04-16 12:30 | 50.04013 | 8.54993 | 355 ft | 21 kts | 249° |
| 2026-04-16 12:30 | 50.03961 | 8.54776 | 353 ft | 22 kts | 250° |
| 2026-04-16 12:31 | 50.03905 | 8.54546 | 352 ft | 23 kts | 249° |
| 2026-04-16 12:31 | 50.03850 | 8.54346 | 350 ft | 19 kts | 236° |
| 2026-04-16 12:31 | 50.03786 | 8.54166 | 349 ft | 20 kts | 249° |
| 2026-04-16 12:31 | 50.03737 | 8.53963 | 344 ft | 20 kts | 249° |
| 2026-04-16 12:32 | 50.03686 | 8.53751 | 347 ft | 21 kts | 249° |
| 2026-04-16 12:32 | 50.03643 | 8.53573 | 337 ft | 18 kts | 249° |
| 2026-04-16 12:32 | 50.03597 | 8.53389 | 340 ft | 19 kts | 250° |
| 2026-04-16 12:32 | 50.03552 | 8.53195 | 339 ft | 20 kts | 250° |
| 2026-04-16 12:33 | 50.03503 | 8.52998 | 336 ft | 13 kts | 249° |
| 2026-04-16 12:33 | 50.03479 | 8.52899 | 337 ft | 9 kts | 249° |
| 2026-04-16 12:33 | 50.03450 | 8.52799 | 336 ft | 8 kts | 244° |
| 2026-04-16 12:33 | 50.03435 | 8.52737 | 333 ft | 6 kts | 251° |
| 2026-04-16 12:34 | 50.03427 | 8.52705 | 332 ft | 2 kts | 250° |
| 2026-04-16 12:34 | 50.03421 | 8.52678 | 336 ft | 3 kts | 248° |
| 2026-04-16 12:34 | 50.03409 | 8.52638 | 334 ft | 5 kts | 243° |
| 2026-04-16 12:34 | 50.03385 | 8.52595 | 334 ft | 5 kts | 207° |
| 2026-04-16 12:35 | 50.03342 | 8.52593 | 336 ft | 8 kts | 179° |
| 2026-04-16 12:35 | 50.03109 | 8.52596 | 336 ft | 71 kts | 180° |
| 2026-04-16 12:35 | 50.02373 | 8.52604 | 335 ft | 137 kts | 180° |
| 2026-04-16 12:35 | 50.01277 | 8.52623 | 596 ft | 164 kts | 181° |
| 2026-04-16 12:36 | 50.00137 | 8.52657 | 1321 ft | 163 kts | 180° |
| 2026-04-16 12:36 | 49.98969 | 8.52735 | 1924 ft | 177 kts | 179° |
| 2026-04-16 12:36 | 49.97656 | 8.52821 | 2361 ft | 200 kts | 179° |
| 2026-04-16 12:36 | 49.96196 | 8.52915 | 2881 ft | 222 kts | 180° |
| 2026-04-16 12:37 | 49.94633 | 8.53016 | 3874 ft | 228 kts | 180° |
| 2026-04-16 12:37 | 49.93032 | 8.53121 | 4897 ft | 232 kts | 180° |
| 2026-04-16 12:37 | 49.91406 | 8.53227 | 5879 ft | 236 kts | 180° |
| 2026-04-16 12:37 | 49.89756 | 8.53334 | 6808 ft | 239 kts | 180° |
| 2026-04-16 12:38 | 49.88082 | 8.53418 | 7663 ft | 242 kts | 185° |
| 2026-04-16 12:38 | 49.86410 | 8.52982 | 8375 ft | 252 kts | 200° |
| 2026-04-16 12:38 | 49.84691 | 8.52020 | 8864 ft | 272 kts | 202° |
| 2026-04-16 12:38 | 49.82879 | 8.50986 | 9675 ft | 280 kts | 202° |
| 2026-04-16 12:39 | 49.81031 | 8.49934 | 10477 ft | 289 kts | 202° |
| 2026-04-16 12:39 | 49.79070 | 8.48793 | 10789 ft | 313 kts | 205° |
| 2026-04-16 12:39 | 49.77267 | 8.46818 | 11207 ft | 326 kts | 229° |
| 2026-04-16 12:39 | 49.76041 | 8.43869 | 11935 ft | 329 kts | 249° |
| 2026-04-16 12:40 | 49.75563 | 8.40418 | 12743 ft | 331 kts | 270° |
| 2026-04-16 12:40 | 49.75943 | 8.36916 | 13558 ft | 334 kts | 291° |
| 2026-04-16 12:40 | 49.76986 | 8.33689 | 14348 ft | 337 kts | 297° |
| 2026-04-16 12:40 | 49.78097 | 8.30490 | 15075 ft | 339 kts | 297° |
| 2026-04-16 12:41 | 49.79218 | 8.27263 | 15792 ft | 342 kts | 297° |
| 2026-04-16 12:41 | 49.80329 | 8.24046 | 16494 ft | 345 kts | 297° |
| 2026-04-16 12:41 | 49.81478 | 8.20710 | 17231 ft | 348 kts | 297° |
| 2026-04-16 12:41 | 49.82603 | 8.17428 | 17931 ft | 351 kts | 297° |
| 2026-04-16 12:42 | 49.83752 | 8.14067 | 18612 ft | 355 kts | 296° |
| 2026-04-16 12:42 | 49.84910 | 8.10672 | 19220 ft | 358 kts | 296° |
| 2026-04-16 12:42 | 49.86073 | 8.07254 | 19837 ft | 360 kts | 296° |
| 2026-04-16 12:42 | 49.87243 | 8.03806 | 20466 ft | 362 kts | 296° |
| 2026-04-16 12:43 | 49.88418 | 8.00334 | 21095 ft | 365 kts | 296° |
| 2026-04-16 12:43 | 49.89602 | 7.96840 | 21721 ft | 367 kts | 296° |
| 2026-04-16 12:43 | 49.90795 | 7.93321 | 22344 ft | 370 kts | 296° |
| 2026-04-16 12:43 | 49.91996 | 7.89774 | 22953 ft | 373 kts | 296° |
| 2026-04-16 12:44 | 49.93205 | 7.86200 | 23532 ft | 375 kts | 296° |
| 2026-04-16 12:44 | 49.94423 | 7.82605 | 24045 ft | 378 kts | 296° |
| 2026-04-16 12:44 | 49.95649 | 7.78979 | 24508 ft | 381 kts | 296° |
| 2026-04-16 12:44 | 49.96881 | 7.75328 | 24967 ft | 383 kts | 296° |
| 2026-04-16 12:45 | 49.98117 | 7.71656 | 25416 ft | 385 kts | 296° |
| 2026-04-16 12:45 | 49.99359 | 7.67952 | 25856 ft | 387 kts | 296° |
| 2026-04-16 12:45 | 50.00602 | 7.64230 | 26301 ft | 389 kts | 296° |
| 2026-04-16 12:45 | 50.01833 | 7.60538 | 26741 ft | 391 kts | 296° |
| 2026-04-16 12:46 | 50.03089 | 7.56772 | 27178 ft | 393 kts | 296° |
| 2026-04-16 12:46 | 50.04352 | 7.52989 | 27613 ft | 395 kts | 296° |
| 2026-04-16 12:46 | 50.05624 | 7.49182 | 28054 ft | 398 kts | 296° |
| 2026-04-16 12:46 | 50.06905 | 7.45348 | 28468 ft | 400 kts | 296° |
| 2026-04-16 12:47 | 50.08186 | 7.41497 | 28894 ft | 402 kts | 295° |
| 2026-04-16 12:47 | 50.09473 | 7.37617 | 29292 ft | 404 kts | 295° |
| 2026-04-16 12:47 | 50.10764 | 7.33714 | 29678 ft | 407 kts | 295° |
| 2026-04-16 12:47 | 50.12060 | 7.29788 | 30053 ft | 408 kts | 295° |
| 2026-04-16 12:48 | 50.13361 | 7.25842 | 30425 ft | 410 kts | 295° |
| 2026-04-16 12:48 | 50.14666 | 7.21877 | 30840 ft | 412 kts | 295° |
| 2026-04-16 12:48 | 50.15975 | 7.17898 | 31282 ft | 413 kts | 295° |
| 2026-04-16 12:48 | 50.17286 | 7.13904 | 31741 ft | 413 kts | 296° |
| 2026-04-16 12:49 | 50.18588 | 7.09930 | 32341 ft | 409 kts | 296° |
| 2026-04-16 12:49 | 50.19861 | 7.06048 | 32923 ft | 405 kts | 296° |
| 2026-04-16 12:49 | 50.21153 | 7.02096 | 33510 ft | 401 kts | 296° |
| 2026-04-16 12:49 | 50.22397 | 6.98282 | 34031 ft | 398 kts | 296° |
| 2026-04-16 12:50 | 50.23660 | 6.94404 | 34200 ft | 402 kts | 296° |
| 2026-04-16 12:50 | 50.24929 | 6.90510 | 34218 ft | 404 kts | 296° |
| 2026-04-16 12:50 | 50.26201 | 6.86604 | 34542 ft | 403 kts | 297° |
| 2026-04-16 12:50 | 50.27468 | 6.82706 | 34885 ft | 402 kts | 296° |
| 2026-04-16 12:51 | 50.28733 | 6.78797 | 35201 ft | 402 kts | 296° |
| 2026-04-16 12:51 | 50.29995 | 6.74892 | 35498 ft | 403 kts | 296° |
| 2026-04-16 12:51 | 50.31257 | 6.70984 | 35785 ft | 403 kts | 296° |
| 2026-04-16 12:51 | 50.32522 | 6.67062 | 36077 ft | 404 kts | 296° |
| 2026-04-16 12:52 | 50.33784 | 6.63134 | 36201 ft | 404 kts | 296° |
| 2026-04-16 12:52 | 50.35045 | 6.59200 | 36212 ft | 404 kts | 296° |
| 2026-04-16 12:52 | 50.37563 | 6.51334 | 36213 ft | 404 kts | 296° |
| 2026-04-16 12:53 | 50.40077 | 6.43473 | 36215 ft | 403 kts | 296° |
| 2026-04-16 12:53 | 50.42580 | 6.35627 | 36211 ft | 402 kts | 296° |
| 2026-04-16 12:54 | 50.45069 | 6.27773 | 36228 ft | 402 kts | 296° |
| 2026-04-16 12:54 | 50.47557 | 6.19917 | 36230 ft | 402 kts | 296° |
| 2026-04-16 12:55 | 50.50042 | 6.12048 | 36262 ft | 402 kts | 296° |
| 2026-04-16 12:55 | 50.52520 | 6.04174 | 36255 ft | 402 kts | 296° |
| 2026-04-16 12:56 | 50.54989 | 5.96297 | 36247 ft | 401 kts | 296° |
| 2026-04-16 12:56 | 50.57446 | 5.88438 | 36250 ft | 400 kts | 296° |
| 2026-04-16 12:57 | 50.59881 | 5.80636 | 36249 ft | 400 kts | 296° |
| 2026-04-16 12:57 | 50.62322 | 5.72786 | 36242 ft | 399 kts | 295° |
| 2026-04-16 12:58 | 50.64753 | 5.64933 | 36234 ft | 399 kts | 295° |
| 2026-04-16 12:58 | 50.67177 | 5.57071 | 36245 ft | 399 kts | 295° |
| 2026-04-16 12:59 | 50.69598 | 5.49215 | 36267 ft | 398 kts | 295° |
| 2026-04-16 13:00 | 50.73207 | 5.37425 | 36265 ft | 397 kts | 295° |
| 2026-04-16 13:00 | 50.75600 | 5.29566 | 36254 ft | 397 kts | 295° |
| 2026-04-16 13:01 | 50.77986 | 5.21721 | 36272 ft | 397 kts | 295° |
| 2026-04-16 13:01 | 50.80374 | 5.13847 | 36255 ft | 396 kts | 295° |
| 2026-04-16 13:02 | 50.82717 | 5.06102 | 36256 ft | 396 kts | 295° |
| 2026-04-16 13:02 | 50.85083 | 4.98246 | 36254 ft | 395 kts | 295° |
| 2026-04-16 13:03 | 50.87419 | 4.90434 | 36244 ft | 395 kts | 295° |
| 2026-04-16 13:03 | 50.89776 | 4.82573 | 36243 ft | 395 kts | 295° |
| 2026-04-16 13:04 | 50.92124 | 4.74711 | 36244 ft | 395 kts | 295° |
| 2026-04-16 13:04 | 50.94460 | 4.66836 | 36254 ft | 394 kts | 294° |
| 2026-04-16 13:05 | 50.96410 | 4.60235 | 36258 ft | 394 kts | 294° |
| 2026-04-16 13:05 | 50.98716 | 4.52415 | 36260 ft | 394 kts | 294° |
| 2026-04-16 13:06 | 51.01018 | 4.44526 | 36258 ft | 394 kts | 294° |
| 2026-04-16 13:06 | 51.03320 | 4.36633 | 36257 ft | 394 kts | 294° |
| 2026-04-16 13:07 | 51.05617 | 4.28731 | 36238 ft | 394 kts | 294° |
| 2026-04-16 13:07 | 51.07906 | 4.20821 | 36240 ft | 394 kts | 294° |
| 2026-04-16 13:08 | 51.10190 | 4.12893 | 36239 ft | 394 kts | 294° |
| 2026-04-16 13:08 | 51.12468 | 4.04961 | 36242 ft | 394 kts | 294° |
| 2026-04-16 13:09 | 51.14742 | 3.97024 | 36233 ft | 394 kts | 294° |
| 2026-04-16 13:09 | 51.17009 | 3.89074 | 36234 ft | 394 kts | 294° |
| 2026-04-16 13:10 | 51.19275 | 3.81123 | 36239 ft | 394 kts | 294° |
| 2026-04-16 13:10 | 51.21528 | 3.73165 | 36233 ft | 394 kts | 293° |
| 2026-04-16 13:11 | 51.23634 | 3.65183 | 36235 ft | 393 kts | 287° |
| 2026-04-16 13:11 | 51.24828 | 3.56671 | 36237 ft | 393 kts | 283° |
| 2026-04-16 13:12 | 51.25962 | 3.48141 | 36236 ft | 393 kts | 283° |
| 2026-04-16 13:12 | 51.27090 | 3.39611 | 36239 ft | 393 kts | 283° |
| 2026-04-16 13:13 | 51.28199 | 3.31072 | 36246 ft | 393 kts | 282° |
| 2026-04-16 13:13 | 51.29288 | 3.22532 | 36273 ft | 392 kts | 282° |
| 2026-04-16 13:14 | 51.30371 | 3.13996 | 36271 ft | 392 kts | 282° |
| 2026-04-16 13:14 | 51.31452 | 3.05473 | 36266 ft | 391 kts | 282° |
| 2026-04-16 13:15 | 51.32525 | 2.96961 | 36263 ft | 391 kts | 282° |
| 2026-04-16 13:15 | 51.33589 | 2.88446 | 36253 ft | 390 kts | 282° |
| 2026-04-16 13:16 | 51.34645 | 2.79931 | 36249 ft | 390 kts | 281° |
| 2026-04-16 13:16 | 51.35698 | 2.71420 | 36246 ft | 390 kts | 281° |
| 2026-04-16 13:17 | 51.36752 | 2.62916 | 36239 ft | 390 kts | 281° |
| 2026-04-16 13:17 | 51.37797 | 2.54411 | 36236 ft | 389 kts | 281° |
| 2026-04-16 13:18 | 51.38826 | 2.45960 | 36224 ft | 389 kts | 281° |
| 2026-04-16 13:18 | 51.39854 | 2.37440 | 36044 ft | 390 kts | 281° |
| 2026-04-16 13:18 | 51.40365 | 2.33181 | 35794 ft | 389 kts | 281° |
| 2026-04-16 13:19 | 51.40877 | 2.28929 | 35321 ft | 389 kts | 281° |
| 2026-04-16 13:19 | 51.41390 | 2.24671 | 34501 ft | 390 kts | 281° |
| 2026-04-16 13:19 | 51.41900 | 2.20429 | 33833 ft | 386 kts | 281° |
| 2026-04-16 13:19 | 51.42406 | 2.16195 | 32784 ft | 389 kts | 281° |
| 2026-04-16 13:20 | 51.42915 | 2.11903 | 31633 ft | 396 kts | 280° |
| 2026-04-16 13:20 | 51.43430 | 2.07527 | 30419 ft | 403 kts | 280° |
| 2026-04-16 13:20 | 51.43953 | 2.03065 | 28970 ft | 412 kts | 280° |
| 2026-04-16 13:20 | 51.44487 | 1.98518 | 27724 ft | 416 kts | 280° |
| 2026-04-16 13:21 | 51.45038 | 1.93956 | 26580 ft | 418 kts | 280° |
| 2026-04-16 13:21 | 51.45606 | 1.89380 | 25471 ft | 419 kts | 280° |
| 2026-04-16 13:21 | 51.46179 | 1.84790 | 24402 ft | 420 kts | 280° |
| 2026-04-16 13:21 | 51.46736 | 1.80194 | 23291 ft | 421 kts | 279° |
| 2026-04-16 13:22 | 51.47276 | 1.75579 | 22092 ft | 422 kts | 279° |
| 2026-04-16 13:22 | 51.47804 | 1.70947 | 20929 ft | 423 kts | 279° |
| 2026-04-16 13:22 | 51.48284 | 1.66295 | 19813 ft | 423 kts | 275° |
| 2026-04-16 13:22 | 51.48315 | 1.61590 | 18882 ft | 420 kts | 265° |
| 2026-04-16 13:23 | 51.47836 | 1.57014 | 18108 ft | 413 kts | 256° |
| 2026-04-16 13:23 | 51.46931 | 1.52660 | 17171 ft | 410 kts | 250° |
| 2026-04-16 13:23 | 51.45946 | 1.48388 | 16312 ft | 406 kts | 251° |
| 2026-04-16 13:23 | 51.44973 | 1.44151 | 15390 ft | 405 kts | 250° |
| 2026-04-16 13:24 | 51.43798 | 1.40090 | 14684 ft | 401 kts | 241° |
| 2026-04-16 13:24 | 51.42182 | 1.36554 | 14044 ft | 398 kts | 230° |
| 2026-04-16 13:24 | 51.40262 | 1.33328 | 13599 ft | 392 kts | 231° |
| 2026-04-16 13:24 | 51.38614 | 1.29938 | 13341 ft | 390 kts | 235° |
| 2026-04-16 13:25 | 51.36879 | 1.26619 | 13080 ft | 390 kts | 229° |
| 2026-04-16 13:25 | 51.35132 | 1.23329 | 12818 ft | 387 kts | 234° |
| 2026-04-16 13:25 | 51.33614 | 1.19794 | 12560 ft | 384 kts | 239° |
| 2026-04-16 13:25 | 51.32225 | 1.16157 | 12288 ft | 382 kts | 240° |
| 2026-04-16 13:26 | 51.30875 | 1.12513 | 12034 ft | 380 kts | 240° |
| 2026-04-16 13:26 | 51.29513 | 1.08918 | 11681 ft | 375 kts | 239° |
| 2026-04-16 13:26 | 51.28130 | 1.05409 | 10958 ft | 371 kts | 238° |
| 2026-04-16 13:26 | 51.26728 | 1.01980 | 10283 ft | 366 kts | 238° |
| 2026-04-16 13:27 | 51.25338 | 0.98661 | 9948 ft | 350 kts | 237° |
| 2026-04-16 13:27 | 51.24012 | 0.95536 | 9810 ft | 330 kts | 237° |
| 2026-04-16 13:27 | 51.22762 | 0.92591 | 9615 ft | 312 kts | 237° |
| 2026-04-16 13:27 | 51.21577 | 0.89792 | 9457 ft | 297 kts | 237° |
| 2026-04-16 13:28 | 51.20452 | 0.87127 | 9301 ft | 283 kts | 238° |
| 2026-04-16 13:28 | 51.19379 | 0.84575 | 9146 ft | 271 kts | 237° |
| 2026-04-16 13:28 | 51.18343 | 0.82110 | 8876 ft | 264 kts | 237° |
| 2026-04-16 13:28 | 51.17539 | 0.79528 | 8491 ft | 260 kts | 257° |
| 2026-04-16 13:29 | 51.17497 | 0.76671 | 8114 ft | 258 kts | 272° |
| 2026-04-16 13:29 | 51.17592 | 0.73824 | 7721 ft | 256 kts | 271° |
| 2026-04-16 13:29 | 51.17673 | 0.70987 | 7299 ft | 256 kts | 271° |
| 2026-04-16 13:29 | 51.17747 | 0.68160 | 6983 ft | 254 kts | 271° |
| 2026-04-16 13:30 | 51.17819 | 0.65328 | 6903 ft | 255 kts | 271° |
| 2026-04-16 13:30 | 51.17894 | 0.62502 | 6876 ft | 256 kts | 271° |
| 2026-04-16 13:30 | 51.17964 | 0.59703 | 6858 ft | 246 kts | 271° |
| 2026-04-16 13:30 | 51.18036 | 0.57066 | 6834 ft | 231 kts | 271° |
| 2026-04-16 13:31 | 51.18103 | 0.54539 | 6837 ft | 227 kts | 271° |
| 2026-04-16 13:31 | 51.18166 | 0.52058 | 6707 ft | 221 kts | 271° |
| 2026-04-16 13:31 | 51.18235 | 0.49616 | 6377 ft | 220 kts | 272° |
| 2026-04-16 13:31 | 51.18299 | 0.47199 | 6017 ft | 220 kts | 271° |
| 2026-04-16 13:32 | 51.18369 | 0.44828 | 5880 ft | 209 kts | 271° |
| 2026-04-16 13:32 | 51.18445 | 0.42553 | 5726 ft | 201 kts | 271° |
| 2026-04-16 13:32 | 51.18527 | 0.40360 | 5503 ft | 196 kts | 271° |
| 2026-04-16 13:32 | 51.18609 | 0.38201 | 5202 ft | 195 kts | 271° |
| 2026-04-16 13:33 | 51.18694 | 0.36046 | 4880 ft | 195 kts | 271° |
| 2026-04-16 13:33 | 51.18775 | 0.33890 | 4549 ft | 196 kts | 272° |
| 2026-04-16 13:33 | 51.18848 | 0.31708 | 4201 ft | 196 kts | 270° |
| 2026-04-16 13:33 | 51.18935 | 0.29544 | 3872 ft | 197 kts | 271° |
| 2026-04-16 13:34 | 51.19019 | 0.27384 | 3626 ft | 194 kts | 270° |
| 2026-04-16 13:34 | 51.19131 | 0.25243 | 3436 ft | 192 kts | 271° |
| 2026-04-16 13:34 | 51.19252 | 0.23119 | 3195 ft | 193 kts | 272° |
| 2026-04-16 13:34 | 51.19355 | 0.20999 | 3062 ft | 191 kts | 271° |
| 2026-04-16 13:35 | 51.19450 | 0.18871 | 2790 ft | 192 kts | 271° |
| 2026-04-16 13:35 | 51.19507 | 0.16757 | 2750 ft | 191 kts | 265° |
| 2026-04-16 13:35 | 51.19348 | 0.14656 | 2757 ft | 191 kts | 258° |
| 2026-04-16 13:35 | 51.19100 | 0.12581 | 2783 ft | 190 kts | 257° |
| 2026-04-16 13:36 | 51.18834 | 0.10545 | 2805 ft | 190 kts | 256° |
| 2026-04-16 13:36 | 51.18561 | 0.08501 | 2820 ft | 188 kts | 256° |
| 2026-04-16 13:36 | 51.18282 | 0.06432 | 2823 ft | 189 kts | 256° |
| 2026-04-16 13:36 | 51.18017 | 0.04467 | 2745 ft | 181 kts | 256° |
| 2026-04-16 13:37 | 51.17750 | 0.02495 | 2586 ft | 178 kts | 256° |
| 2026-04-16 13:37 | 51.17497 | 0.00636 | 2553 ft | 164 kts | 255° |
| 2026-04-16 13:37 | 51.17274 | -0.01039 | 2519 ft | 151 kts | 255° |
| 2026-04-16 13:37 | 51.17066 | -0.02646 | 2258 ft | 143 kts | 255° |
| 2026-04-16 13:38 | 51.16874 | -0.04156 | 2004 ft | 138 kts | 255° |
| 2026-04-16 13:38 | 51.16684 | -0.05628 | 1780 ft | 134 kts | 253° |
| 2026-04-16 13:38 | 51.16477 | -0.07055 | 1563 ft | 132 kts | 253° |
| 2026-04-16 13:38 | 51.16274 | -0.08471 | 1378 ft | 130 kts | 253° |
| 2026-04-16 13:39 | 51.16077 | -0.09875 | 1186 ft | 130 kts | 254° |
| 2026-04-16 13:39 | 51.15878 | -0.11300 | 1000 ft | 135 kts | 255° |
| 2026-04-16 13:39 | 51.15681 | -0.12744 | 841 ft | 133 kts | 256° |
| 2026-04-16 13:39 | 51.15485 | -0.14180 | 650 ft | 133 kts | 257° |
| 2026-04-16 13:40 | 51.15282 | -0.15647 | 470 ft | 138 kts | 254° |
| 2026-04-16 13:40 | 51.15075 | -0.17126 | 272 ft | 136 kts | 255° |
| 2026-04-16 13:40 | 51.14888 | -0.18494 | 205 ft | 114 kts | 256° |
| 2026-04-16 13:40 | 51.14752 | -0.19478 | 209 ft | 53 kts | 258° |
| 2026-04-16 13:41 | 51.14702 | -0.19927 | 204 ft | 33 kts | 267° |
| 2026-04-16 13:41 | 51.14739 | -0.20266 | 204 ft | 30 kts | 282° |
| 2026-04-16 13:41 | 51.14786 | -0.20407 | 203 ft | 13 kts | 358° |
| 2026-04-16 13:41 | 51.14825 | -0.20290 | 202 ft | 15 kts | 78° |
| 2026-04-16 13:42 | 51.14849 | -0.20115 | 203 ft | 17 kts | 78° |
| 2026-04-16 13:42 | 51.14877 | -0.19911 | 208 ft | 20 kts | 77° |
| 2026-04-16 13:42 | 51.14909 | -0.19678 | 208 ft | 23 kts | 77° |
| 2026-04-16 13:42 | 51.14944 | -0.19425 | 216 ft | 19 kts | 78° |
| 2026-04-16 13:43 | 51.14972 | -0.19221 | 215 ft | 19 kts | 78° |
| 2026-04-16 13:43 | 51.14997 | -0.19032 | 203 ft | 17 kts | 78° |
| 2026-04-16 13:43 | 51.15024 | -0.18838 | 206 ft | 18 kts | 77° |
| 2026-04-16 13:43 | 51.15052 | -0.18633 | 202 ft | 19 kts | 77° |
| 2026-04-16 13:44 | 51.15081 | -0.18426 | 202 ft | 19 kts | 77° |
| 2026-04-16 13:44 | 51.15112 | -0.18225 | 203 ft | 14 kts | 62° |
| 2026-04-16 13:44 | 51.15194 | -0.18207 | 210 ft | 13 kts | 347° |
| 2026-04-16 13:44 | 51.15282 | -0.18241 | 204 ft | 14 kts | 346° |
| 2026-04-16 13:45 | 51.15377 | -0.18273 | 204 ft | 14 kts | 348° |
| 2026-04-16 13:45 | 51.15477 | -0.18307 | 204 ft | 15 kts | 348° |
| 2026-04-16 13:45 | 51.15578 | -0.18342 | 204 ft | 12 kts | 347° |
| 2026-04-16 13:45 | 51.15642 | -0.18315 | 204 ft | 10 kts | 63° |
| 2026-04-16 13:46 | 51.15666 | -0.18202 | 212 ft | 11 kts | 78° |
| 2026-04-16 13:46 | 51.15682 | -0.18081 | 207 ft | 11 kts | 78° |
| 2026-04-16 13:46 | 51.15696 | -0.17976 | 209 ft | 9 kts | 77° |
| 2026-04-16 13:46 | 51.15711 | -0.17877 | 208 ft | 9 kts | 77° |
| 2026-04-16 13:47 | 51.15724 | -0.17777 | 208 ft | 9 kts | 79° |
| 2026-04-16 13:47 | 51.15736 | -0.17678 | 210 ft | 9 kts | 77° |
| 2026-04-16 13:47 | 51.15755 | -0.17606 | 208 ft | 5 kts | 33° |
| 2026-04-16 13:47 | 51.15780 | -0.17609 | 204 ft | 3 kts | 346° |
| 2026-04-16 13:48 | 51.15800 | -0.17619 | 214 ft | 3 kts | 343° |
| 2026-04-16 13:48 | 51.15821 | -0.17626 | 208 ft | 3 kts | 348° |
| 2026-04-16 13:48 | 51.15832 | -0.17629 | 205 ft | 1 kts | 348° |
| 2026-04-16 13:48 | 51.15834 | -0.17630 | 205 ft | 0 kts | 348° |